Terminal Aerodrome Forecast
Issued by NWS

Home | Current Version | Previous Version | Text Only | Print | Product List | Glossary On
Versions: 1 2 3 4 5 6 7 8 9 10 11 12 13 14 15 16 17 18 19
000
FTUS43 KOAX 281141
TAFSNY
TAF
KSNY 281141Z 2812/2912 27007KT P6SM SCT150
     FM281500 27012G22KT P6SM BKN100
     FM290200 31007KT P6SM VCSH OVC050
     FM291000 03006KT 3SM -SN OVC025=

USA.gov is the U.S. government's official web portal to all federal, state and local government web resources and services.